Time;durP1;ratioP1;P1;durP2;ratioP2;P2;SDS_P1;SDS_P2;PMS_P1;PMS_P2;Temp;Humidity;BMP_temperature;BMP_pressure;BME280_temperature;BME280_humidity;BME280_pressure;Samples;Min_cycle;Max_cycle;Signal;HPM_P1;HPM_P2
2023/03/14 00:00:27;;;;;;;18.30;17.30;;;;;;;;;;5115671;28;20928;-77
2023/03/14 00:02:54;;;;;;;18.60;17.60;;;;;;;;;;5114967;28;20993;-78
2023/03/14 00:05:21;;;;;;;18.43;17.33;;;;;;;;;;5115563;28;20451;-77
2023/03/14 00:07:48;;;;;;;19.37;18.23;;;;;;;;;;5115528;28;20860;-77
2023/03/14 00:10:17;;;;;;;18.87;17.70;;;;;;;;;;5115023;28;20526;-77
2023/03/14 00:12:44;;;;;;;18.93;17.63;;;;;;;;;;5114632;28;20448;-77
2023/03/14 00:15:11;;;;;;;18.50;17.23;;;;;;;;;;5115228;28;20436;-79
2023/03/14 00:17:39;;;;;;;20.27;19.17;;;;;;;;;;5114687;28;20438;-77
2023/03/14 00:20:09;;;;;;;18.70;17.70;;;;;;;;;;5115434;28;20437;-77
2023/03/14 00:22:36;;;;;;;19.67;18.57;;;;;;;;;;5114736;28;20527;-78
2023/03/14 00:25:03;;;;;;;19.30;17.97;;;;;;;;;;5115522;28;20500;-77
2023/03/14 00:27:32;;;;;;;20.47;18.73;;;;;;;;;;5114907;28;20505;-77
2023/03/14 00:29:59;;;;;;;19.13;18.00;;;;;;;;;;5114926;28;20525;-77
2023/03/14 00:32:26;;;;;;;19.60;18.60;;;;;;;;;;5113898;28;20468;-78
2023/03/14 00:34:53;;;;;;;19.90;18.33;;;;;;;;;;5115118;28;20483;-77
2023/03/14 00:37:20;;;;;;;19.83;18.63;;;;;;;;;;5114930;28;20468;-78
2023/03/14 00:39:47;;;;;;;19.70;18.60;;;;;;;;;;5114612;28;20919;-77
2023/03/14 00:42:14;;;;;;;18.80;17.90;;;;;;;;;;5113815;28;20468;-78
2023/03/14 00:44:42;;;;;;;19.60;18.40;;;;;;;;;;5114920;28;20473;-78
2023/03/14 00:47:09;;;;;;;19.00;17.80;;;;;;;;;;5114710;28;20468;-78
2023/03/14 00:49:36;;;;;;;19.00;18.00;;;;;;;;;;5114862;28;20476;-78
2023/03/14 00:52:03;;;;;;;18.80;17.80;;;;;;;;;;5113731;28;20473;-77
2023/03/14 00:54:30;;;;;;;18.43;17.43;;;;;;;;;;5114601;28;20465;-78
2023/03/14 00:56:57;;;;;;;20.43;18.97;;;;;;;;;;5114674;28;20443;-77
2023/03/14 00:59:24;;;;;;;20.53;19.33;;;;;;;;;;5114662;28;20422;-77
2023/03/14 01:01:53;;;;;;;19.87;18.60;;;;;;;;;;5114069;28;20414;-78
2023/03/14 01:04:20;;;;;;;18.57;17.67;;;;;;;;;;5114622;28;20426;-78
2023/03/14 01:06:47;;;;;;;18.93;17.93;;;;;;;;;;5116444;28;20460;-79
2023/03/14 01:09:14;;;;;;;20.27;18.67;;;;;;;;;;5115660;28;20497;-77
2023/03/14 01:11:42;;;;;;;19.20;18.03;;;;;;;;;;5113843;28;20483;-78
2023/03/14 01:14:09;;;;;;;19.80;18.73;;;;;;;;;;5114529;28;20534;-77
2023/03/14 01:16:36;;;;;;;19.77;18.47;;;;;;;;;;5114333;28;20497;-77
2023/03/14 01:19:05;;;;;;;18.80;17.80;;;;;;;;;;5114414;28;20481;-77
2023/03/14 01:21:33;;;;;;;19.70;18.60;;;;;;;;;;5113600;28;20489;-78
2023/03/14 01:24:01;;;;;;;19.73;18.63;;;;;;;;;;5114432;28;20496;-77
2023/03/14 01:26:29;;;;;;;19.77;18.57;;;;;;;;;;5113615;28;20458;-77
2023/03/14 01:28:57;;;;;;;19.67;18.30;;;;;;;;;;5114355;28;20940;-77
2023/03/14 01:31:24;;;;;;;19.73;18.73;;;;;;;;;;5113584;28;20467;-78
2023/03/14 01:33:51;;;;;;;20.80;19.50;;;;;;;;;;5113973;28;20402;-77
2023/03/14 01:36:20;;;;;;;19.53;18.53;;;;;;;;;;5113566;28;20492;-78
2023/03/14 01:38:47;;;;;;;19.90;18.60;;;;;;;;;;5114206;28;20488;-77
2023/03/14 01:41:15;;;;;;;19.40;18.10;;;;;;;;;;5113602;28;20928;-78
2023/03/14 01:43:42;;;;;;;19.30;17.90;;;;;;;;;;5113542;28;21001;-77
2023/03/14 01:46:24;;;;;;;18.43;17.50;;;;;;;;;;5114051;28;20464;-77
2023/03/14 01:48:54;;;;;;;18.47;17.57;;;;;;;;;;5113815;28;20391;-77
2023/03/14 01:51:25;;;;;;;18.90;17.60;;;;;;;;;;5113564;28;20558;-78
2023/03/14 01:53:54;;;;;;;18.83;17.80;;;;;;;;;;5114059;28;20399;-78
2023/03/14 01:56:21;;;;;;;18.70;17.60;;;;;;;;;;5114494;28;20825;-77
2023/03/14 01:58:50;;;;;;;18.77;17.57;;;;;;;;;;5113299;28;20434;-78
2023/03/14 02:01:18;;;;;;;18.43;17.43;;;;;;;;;;5113768;28;20471;-78
2023/03/14 02:03:48;;;;;;;20.03;18.43;;;;;;;;;;5114058;28;20859;-77
2023/03/14 02:06:16;;;;;;;18.27;17.37;;;;;;;;;;5114187;28;20521;-78
2023/03/14 02:08:48;;;;;;;19.57;18.37;;;;;;;;;;5113874;28;20418;-77
2023/03/14 02:11:15;;;;;;;20.90;19.30;;;;;;;;;;5113632;28;20439;-77
2023/03/14 02:13:42;;;;;;;19.23;18.13;;;;;;;;;;5113477;28;20443;-77
2023/03/14 02:16:09;;;;;;;19.33;18.10;;;;;;;;;;5113846;28;20464;-77
2023/03/14 02:18:36;;;;;;;19.10;17.97;;;;;;;;;;5113905;28;20931;-78
2023/03/14 02:21:07;;;;;;;19.50;18.40;;;;;;;;;;5113895;28;20407;-77
2023/03/14 02:23:36;;;;;;;19.30;18.20;;;;;;;;;;5113322;28;20449;-77
2023/03/14 02:26:07;;;;;;;19.03;17.70;;;;;;;;;;5113397;28;20508;-78
2023/03/14 02:28:35;;;;;;;18.83;17.93;;;;;;;;;;5113791;28;20500;-77
2023/03/14 02:31:02;;;;;;;19.70;18.73;;;;;;;;;;5113626;28;20455;-77
2023/03/14 02:33:29;;;;;;;34.67;33.03;;;;;;;;;;5113230;28;20423;-77
2023/03/14 02:35:58;;;;;;;42.00;39.90;;;;;;;;;;5117381;28;20467;-77
2023/03/14 02:38:28;;;;;;;44.97;42.57;;;;;;;;;;5117344;28;20472;-77
2023/03/14 02:40:55;;;;;;;43.10;41.10;;;;;;;;;;5117357;28;20459;-77
2023/03/14 02:43:22;;;;;;;42.10;40.07;;;;;;;;;;5116811;28;20520;-77
2023/03/14 02:45:51;;;;;;;41.63;39.63;;;;;;;;;;5116554;28;20449;-77
2023/03/14 02:48:20;;;;;;;40.90;38.33;;;;;;;;;;5117193;28;20428;-77
2023/03/14 02:50:48;;;;;;;38.13;35.53;;;;;;;;;;5116935;28;20450;-77
2023/03/14 02:53:18;;;;;;;41.87;39.87;;;;;;;;;;5116494;28;20440;-77
2023/03/14 02:55:46;;;;;;;39.37;37.57;;;;;;;;;;5117015;28;20448;-79
2023/03/14 02:58:13;;;;;;;40.57;38.53;;;;;;;;;;5117476;28;20444;-78
2023/03/14 03:00:40;;;;;;;39.03;37.23;;;;;;;;;;5116931;28;20417;-77
2023/03/14 03:03:08;;;;;;;39.07;37.27;;;;;;;;;;5116406;28;20422;-77
2023/03/14 03:05:35;;;;;;;38.37;36.60;;;;;;;;;;5116746;28;20496;-77
2023/03/14 03:08:02;;;;;;;42.13;39.73;;;;;;;;;;5116790;28;20491;-77
2023/03/14 03:10:30;;;;;;;39.43;37.53;;;;;;;;;;5116696;28;20476;-77
2023/03/14 03:12:57;;;;;;;38.03;36.23;;;;;;;;;;5116105;28;20475;-77
2023/03/14 03:15:24;;;;;;;37.47;35.67;;;;;;;;;;5116188;28;20476;-77
2023/03/14 03:17:51;;;;;;;36.10;34.40;;;;;;;;;;5116347;28;20532;-77
2023/03/14 03:20:19;;;;;;;34.37;32.67;;;;;;;;;;5116508;28;20444;-77
2023/03/14 03:22:46;;;;;;;33.60;31.90;;;;;;;;;;5116015;28;20496;-77
2023/03/14 03:25:13;;;;;;;33.43;31.60;;;;;;;;;;5116300;28;20451;-77
2023/03/14 03:27:40;;;;;;;34.13;32.43;;;;;;;;;;5115521;28;20915;-77
2023/03/14 03:30:08;;;;;;;31.27;29.83;;;;;;;;;;5116241;28;20500;-77
2023/03/14 03:32:35;;;;;;;31.87;30.37;;;;;;;;;;5115770;28;20415;-77
2023/03/14 03:35:03;;;;;;;29.87;28.50;;;;;;;;;;5116294;28;20470;-77
2023/03/14 03:37:33;;;;;;;28.63;27.23;;;;;;;;;;5115603;28;20829;-77
2023/03/14 03:40:00;;;;;;;28.30;27.00;;;;;;;;;;5116597;28;20788;-77
2023/03/14 03:42:27;;;;;;;29.57;28.13;;;;;;;;;;5115434;28;20422;-77
2023/03/14 03:44:54;;;;;;;29.63;28.23;;;;;;;;;;5115965;28;20436;-77
2023/03/14 03:47:21;;;;;;;29.10;27.80;;;;;;;;;;5115981;28;20493;-77
2023/03/14 03:49:48;;;;;;;28.10;26.80;;;;;;;;;;5115685;28;20960;-77
2023/03/14 03:52:15;;;;;;;28.63;27.33;;;;;;;;;;5115348;28;20856;-77
2023/03/14 03:54:43;;;;;;;30.53;29.13;;;;;;;;;;5115034;28;20963;-77
2023/03/14 03:57:10;;;;;;;27.70;26.40;;;;;;;;;;5115985;28;20463;-77
2023/03/14 03:59:39;;;;;;;29.37;27.83;;;;;;;;;;5115685;28;20853;-77
2023/03/14 04:02:06;;;;;;;27.93;26.53;;;;;;;;;;5115257;28;20493;-77
2023/03/14 04:04:33;;;;;;;28.17;26.90;;;;;;;;;;5115826;28;20423;-76
2023/03/14 04:07:00;;;;;;;26.33;24.93;;;;;;;;;;5115692;28;20471;-78
2023/03/14 04:09:27;;;;;;;27.87;26.57;;;;;;;;;;5117917;28;20451;-79
2023/03/14 04:11:56;;;;;;;29.50;27.90;;;;;;;;;;5117759;28;20499;-79
2023/03/14 04:14:23;;;;;;;36.17;33.57;;;;;;;;;;5115247;28;20909;-77
2023/03/14 04:16:50;;;;;;;29.47;27.87;;;;;;;;;;5115486;28;20920;-77
2023/03/14 04:19:17;;;;;;;29.67;28.07;;;;;;;;;;5115621;28;20440;-77
2023/03/14 04:21:45;;;;;;;30.13;28.43;;;;;;;;;;5114855;28;20494;-77
2023/03/14 04:24:12;;;;;;;29.60;28.07;;;;;;;;;;5115182;28;20779;-77
2023/03/14 04:26:39;;;;;;;26.43;25.23;;;;;;;;;;5114919;28;20482;-77
2023/03/14 04:29:08;;;;;;;28.83;27.13;;;;;;;;;;5115135;28;20421;-77
2023/03/14 04:31:35;;;;;;;27.00;25.40;;;;;;;;;;5114505;28;20450;-77
2023/03/14 04:34:02;;;;;;;26.73;24.80;;;;;;;;;;5115212;28;20431;-77
2023/03/14 04:36:29;;;;;;;27.37;26.00;;;;;;;;;;5114389;28;20458;-78
2023/03/14 04:38:55;;;;;;;26.57;25.27;;;;;;;;;;5114920;28;20467;-77
2023/03/14 04:41:22;;;;;;;25.37;24.17;;;;;;;;;;5114116;28;20439;-78
2023/03/14 04:43:49;;;;;;;25.40;24.30;;;;;;;;;;5114913;28;20425;-77
2023/03/14 04:46:18;;;;;;;26.17;24.53;;;;;;;;;;5113998;28;20537;-77
2023/03/14 04:48:45;;;;;;;23.67;22.60;;;;;;;;;;5114869;28;20407;-77
2023/03/14 04:51:12;;;;;;;26.70;25.00;;;;;;;;;;5114660;28;20484;-78
2023/03/14 04:53:39;;;;;;;25.23;23.73;;;;;;;;;;5114419;28;20520;-77
2023/03/14 04:56:06;;;;;;;24.60;23.20;;;;;;;;;;5114286;28;20526;-77
2023/03/14 04:58:33;;;;;;;24.97;23.70;;;;;;;;;;5114276;28;20766;-77
2023/03/14 05:01:03;;;;;;;24.60;23.20;;;;;;;;;;5114321;28;20963;-77
2023/03/14 05:03:31;;;;;;;24.03;22.93;;;;;;;;;;5114011;28;20426;-77
2023/03/14 05:05:58;;;;;;;23.13;21.90;;;;;;;;;;5114608;28;20527;-78
2023/03/14 05:08:26;;;;;;;24.53;23.33;;;;;;;;;;5113755;28;20434;-77
2023/03/14 05:10:53;;;;;;;24.90;23.70;;;;;;;;;;5114324;28;20519;-77
2023/03/14 05:13:20;;;;;;;25.17;24.00;;;;;;;;;;5114014;28;20423;-77
2023/03/14 05:15:47;;;;;;;24.57;23.00;;;;;;;;;;5114050;28;20522;-77
2023/03/14 05:18:14;;;;;;;23.67;22.30;;;;;;;;;;5113768;28;20438;-77
2023/03/14 05:20:42;;;;;;;24.57;23.47;;;;;;;;;;5114336;28;20475;-77
2023/03/14 05:23:09;;;;;;;25.07;23.80;;;;;;;;;;5113679;28;20440;-78
2023/03/14 05:25:37;;;;;;;25.27;23.63;;;;;;;;;;5114271;28;20826;-77
2023/03/14 05:28:04;;;;;;;23.83;22.53;;;;;;;;;;5113640;28;20517;-78
2023/03/14 05:30:32;;;;;;;25.17;23.87;;;;;;;;;;5113972;28;20428;-77
2023/03/14 05:32:59;;;;;;;27.20;25.47;;;;;;;;;;5113312;28;21023;-77
2023/03/14 05:35:26;;;;;;;25.00;23.80;;;;;;;;;;5113817;28;20822;-77
2023/03/14 05:37:54;;;;;;;24.40;23.40;;;;;;;;;;5113652;28;20452;-78
2023/03/14 05:40:21;;;;;;;24.83;23.73;;;;;;;;;;5113756;28;20447;-77
2023/03/14 05:42:48;;;;;;;24.73;23.37;;;;;;;;;;5113645;28;20440;-78
2023/03/14 05:45:15;;;;;;;23.77;22.77;;;;;;;;;;5114273;28;20432;-77
2023/03/14 05:47:42;;;;;;;24.00;22.77;;;;;;;;;;5113846;28;20448;-77
2023/03/14 05:50:09;;;;;;;23.53;22.23;;;;;;;;;;5113739;28;20928;-77
2023/03/14 05:52:36;;;;;;;24.30;23.30;;;;;;;;;;5113487;28;20568;-78
2023/03/14 05:55:05;;;;;;;23.27;22.37;;;;;;;;;;5114138;28;20778;-74
2023/03/14 05:57:33;;;;;;;22.77;21.67;;;;;;;;;;5114015;28;20517;-73
2023/03/14 06:00:00;;;;;;;22.50;21.50;;;;;;;;;;5113796;28;20472;-73
2023/03/14 06:02:27;;;;;;;22.83;21.80;;;;;;;;;;5113192;28;20422;-74
2023/03/14 06:04:54;;;;;;;22.13;21.13;;;;;;;;;;5113064;28;20842;-74
2023/03/14 06:07:21;;;;;;;24.53;23.33;;;;;;;;;;5113979;28;20453;-74
2023/03/14 06:09:48;;;;;;;24.33;23.33;;;;;;;;;;5115872;28;20466;-73
2023/03/14 06:12:17;;;;;;;28.30;27.10;;;;;;;;;;5116937;28;20487;-74
2023/03/14 06:14:44;;;;;;;26.63;25.40;;;;;;;;;;5117146;28;20861;-73
2023/03/14 06:17:11;;;;;;;25.70;24.70;;;;;;;;;;5129598;27;20826;-73
2023/03/14 06:19:37;;;;;;;27.83;26.63;;;;;;;;;;5138145;27;20470;-74
2023/03/14 06:22:04;;;;;;;29.20;28.00;;;;;;;;;;5137568;27;20498;-74
2023/03/14 06:24:31;;;;;;;30.23;28.93;;;;;;;;;;5137314;27;20467;-73
2023/03/14 06:26:58;;;;;;;31.40;30.00;;;;;;;;;;5137874;27;20468;-73
2023/03/14 06:29:27;;;;;;;32.27;30.70;;;;;;;;;;5138236;27;20446;-73
2023/03/14 06:31:54;;;;;;;34.30;32.60;;;;;;;;;;5137368;27;20479;-73
2023/03/14 06:34:21;;;;;;;35.77;34.17;;;;;;;;;;5137365;27;20427;-74
2023/03/14 06:36:48;;;;;;;35.07;33.37;;;;;;;;;;5137685;27;20462;-73
2023/03/14 06:39:14;;;;;;;36.10;34.50;;;;;;;;;;5137546;27;20910;-74
2023/03/14 06:41:41;;;;;;;34.97;33.37;;;;;;;;;;5137253;27;20456;-74
2023/03/14 06:44:08;;;;;;;36.00;34.50;;;;;;;;;;5137741;27;21263;-73
2023/03/14 06:46:37;;;;;;;37.27;35.43;;;;;;;;;;5137191;27;20979;-73
2023/03/14 06:49:04;;;;;;;35.87;34.30;;;;;;;;;;5137737;27;20496;-73
2023/03/14 06:51:31;;;;;;;36.23;34.53;;;;;;;;;;5136954;27;20449;-73
2023/03/14 06:53:58;;;;;;;37.13;35.27;;;;;;;;;;5137555;27;20418;-73
2023/03/14 06:56:25;;;;;;;37.43;35.77;;;;;;;;;;5136850;27;20535;-74
2023/03/14 06:58:52;;;;;;;36.23;34.63;;;;;;;;;;5137678;27;20435;-73
2023/03/14 07:01:22;;;;;;;39.10;37.17;;;;;;;;;;5136722;27;20959;-74
2023/03/14 07:03:50;;;;;;;36.97;35.20;;;;;;;;;;5137335;27;20430;-73
2023/03/14 07:06:17;;;;;;;36.40;34.80;;;;;;;;;;5136877;27;20466;-74
2023/03/14 07:08:44;;;;;;;35.37;33.77;;;;;;;;;;5137124;27;20918;-73
2023/03/14 07:11:12;;;;;;;38.43;36.53;;;;;;;;;;5137288;27;20450;-74
2023/03/14 07:13:39;;;;;;;36.10;34.20;;;;;;;;;;5136914;27;20465;-73
2023/03/14 07:16:07;;;;;;;36.53;34.90;;;;;;;;;;5136938;27;20496;-74
2023/03/14 07:18:34;;;;;;;36.80;35.10;;;;;;;;;;5136209;27;20506;-74
2023/03/14 07:21:02;;;;;;;37.13;35.53;;;;;;;;;;5136564;27;20406;-73
2023/03/14 07:23:30;;;;;;;39.80;37.70;;;;;;;;;;5136541;27;20420;-74
2023/03/14 07:25:57;;;;;;;35.60;34.03;;;;;;;;;;5136740;27;20487;-74
2023/03/14 07:28:24;;;;;;;37.50;35.80;;;;;;;;;;5136944;27;20421;-73
2023/03/14 07:30:51;;;;;;;37.60;35.83;;;;;;;;;;5137222;27;20772;-73
2023/03/14 07:33:18;;;;;;;39.17;37.47;;;;;;;;;;5136142;27;20485;-74
2023/03/14 07:35:45;;;;;;;39.37;37.63;;;;;;;;;;5136126;27;20533;-74
2023/03/14 07:38:13;;;;;;;40.20;38.40;;;;;;;;;;5136712;27;20477;-73
2023/03/14 07:40:40;;;;;;;37.60;35.80;;;;;;;;;;5136855;27;20503;-74
2023/03/14 07:43:07;;;;;;;39.10;37.40;;;;;;;;;;5136056;27;20418;-73
2023/03/14 07:45:34;;;;;;;40.90;39.03;;;;;;;;;;5136146;27;20470;-74
2023/03/14 07:48:02;;;;;;;39.30;37.60;;;;;;;;;;5136534;27;20406;-74
2023/03/14 07:50:29;;;;;;;39.13;37.23;;;;;;;;;;5136736;27;20442;-73
2023/03/14 07:52:56;;;;;;;37.03;35.43;;;;;;;;;;5135715;27;20571;-73
2023/03/14 07:55:25;;;;;;;37.73;35.73;;;;;;;;;;5136331;27;20858;-73
2023/03/14 07:57:52;;;;;;;38.23;36.50;;;;;;;;;;5136356;27;20480;-74
2023/03/14 08:00:19;;;;;;;38.77;36.70;;;;;;;;;;5136304;27;20418;-73
2023/03/14 08:02:46;;;;;;;40.33;38.43;;;;;;;;;;5134957;27;20784;-74
2023/03/14 08:05:13;;;;;;;39.03;37.20;;;;;;;;;;5135693;27;20942;-73
2023/03/14 08:07:40;;;;;;;39.80;37.80;;;;;;;;;;5136236;27;20506;-73
2023/03/14 08:10:08;;;;;;;39.27;37.37;;;;;;;;;;5136103;27;20472;-74
2023/03/14 08:12:36;;;;;;;39.13;36.93;;;;;;;;;;5135533;27;20876;-75
2023/03/14 08:15:03;;;;;;;35.37;33.77;;;;;;;;;;5136022;27;20515;-73
2023/03/14 08:17:30;;;;;;;39.70;37.47;;;;;;;;;;5135419;27;20459;-75
2023/03/14 08:19:57;;;;;;;36.63;34.93;;;;;;;;;;5136063;27;20418;-74
2023/03/14 08:22:24;;;;;;;41.23;39.40;;;;;;;;;;5135561;27;20435;-74
2023/03/14 08:24:51;;;;;;;39.20;37.40;;;;;;;;;;5135814;27;20418;-74
2023/03/14 08:27:18;;;;;;;40.20;38.27;;;;;;;;;;5134504;27;20540;-73
2023/03/14 08:29:46;;;;;;;37.27;35.23;;;;;;;;;;5137145;27;20452;-73
2023/03/14 08:32:13;;;;;;;35.50;33.80;;;;;;;;;;5134309;27;20471;-73
2023/03/14 08:34:40;;;;;;;38.93;37.07;;;;;;;;;;5135385;27;20904;-73
2023/03/14 08:37:07;;;;;;;36.93;35.23;;;;;;;;;;5135384;27;20471;-72
2023/03/14 08:39:34;;;;;;;34.93;33.33;;;;;;;;;;5135016;27;20465;-73
2023/03/14 08:42:01;;;;;;;37.93;36.13;;;;;;;;;;5134648;27;20468;-73
2023/03/14 08:44:28;;;;;;;34.13;32.63;;;;;;;;;;5135508;27;20502;-72
2023/03/14 08:46:56;;;;;;;36.60;34.90;;;;;;;;;;5135484;27;20442;-73
2023/03/14 08:49:23;;;;;;;36.57;34.40;;;;;;;;;;5135647;27;20443;-74
2023/03/14 08:51:50;;;;;;;36.50;34.70;;;;;;;;;;5133877;27;20523;-74
2023/03/14 08:54:18;;;;;;;37.13;35.43;;;;;;;;;;5125530;27;20851;-80
2023/03/14 08:56:45;;;;;;;35.13;33.47;;;;;;;;;;5118656;28;20539;-80
2023/03/14 08:59:12;;;;;;;37.47;35.73;;;;;;;;;;5117305;28;20477;-74
2023/03/14 09:01:39;;;;;;;39.90;38.00;;;;;;;;;;5112846;28;20965;-74
2023/03/14 09:04:07;;;;;;;38.13;35.37;;;;;;;;;;5114164;28;20444;-74
2023/03/14 09:06:35;;;;;;;39.97;38.13;;;;;;;;;;5115659;28;20434;-74
2023/03/14 09:09:02;;;;;;;38.27;36.37;;;;;;;;;;5114732;28;20418;-74
2023/03/14 09:11:29;;;;;;;37.50;35.80;;;;;;;;;;5112847;28;20960;-74
2023/03/14 09:13:56;;;;;;;38.73;36.87;;;;;;;;;;5114051;28;21061;-74
2023/03/14 09:16:23;;;;;;;34.73;33.13;;;;;;;;;;5113045;28;20473;-74
2023/03/14 09:18:53;;;;;;;32.80;31.20;;;;;;;;;;5112912;28;20444;-74
2023/03/14 09:21:21;;;;;;;30.93;29.53;;;;;;;;;;5112681;28;20782;-77
2023/03/14 09:23:48;;;;;;;32.03;30.53;;;;;;;;;;5112908;28;20819;-73
2023/03/14 09:26:15;;;;;;;31.90;30.50;;;;;;;;;;5113164;28;20570;-74
2023/03/14 09:28:42;;;;;;;32.23;30.73;;;;;;;;;;5114000;28;20455;-73
2023/03/14 09:31:10;;;;;;;33.27;31.57;;;;;;;;;;5114237;28;20467;-74
2023/03/14 09:33:37;;;;;;;35.60;33.90;;;;;;;;;;5112773;28;20556;-73
2023/03/14 09:36:04;;;;;;;34.57;32.90;;;;;;;;;;5114090;28;20438;-74
2023/03/14 09:38:33;;;;;;;34.30;32.70;;;;;;;;;;5113901;28;20443;-74
2023/03/14 09:41:01;;;;;;;34.43;32.83;;;;;;;;;;5114126;28;20426;-73
2023/03/14 09:43:29;;;;;;;31.77;30.27;;;;;;;;;;5114734;28;20470;-73
2023/03/14 09:45:58;;;;;;;33.00;31.50;;;;;;;;;;5117693;28;20515;-73
2023/03/14 09:48:27;;;;;;;32.10;30.60;;;;;;;;;;5117962;28;20906;-72
2023/03/14 09:50:56;;;;;;;30.00;28.60;;;;;;;;;;5118073;28;20448;-73
2023/03/14 09:53:25;;;;;;;34.37;32.87;;;;;;;;;;5117714;28;20560;-73
2023/03/14 09:55:55;;;;;;;32.73;31.13;;;;;;;;;;5118278;28;20443;-72
2023/03/14 09:58:23;;;;;;;33.70;32.10;;;;;;;;;;5117581;28;20756;-73
2023/03/14 10:00:50;;;;;;;33.87;32.30;;;;;;;;;;5117840;28;20492;-72
2023/03/14 10:03:25;;;;;;;32.83;31.33;;;;;;;;;;5116784;28;20459;-73
2023/03/14 10:05:53;;;;;;;32.53;31.13;;;;;;;;;;5117933;28;20470;-74
2023/03/14 10:08:20;;;;;;;31.13;29.73;;;;;;;;;;5117869;28;20444;-73
2023/03/14 10:10:47;;;;;;;33.83;32.17;;;;;;;;;;5118206;28;20467;-74
2023/03/14 10:13:17;;;;;;;34.50;32.90;;;;;;;;;;5117467;28;20507;-73
2023/03/14 10:15:49;;;;;;;32.30;30.80;;;;;;;;;;5116956;28;20503;-73
2023/03/14 10:18:15;;;;;;;34.00;32.50;;;;;;;;;;5117700;28;20399;-72
2023/03/14 10:20:43;;;;;;;31.93;30.43;;;;;;;;;;5117196;28;20447;-73
2023/03/14 10:23:21;;;;;;;32.57;31.07;;;;;;;;;;5116620;28;20873;-73
2023/03/14 10:26:00;;;;;;;34.63;33.00;;;;;;;;;;5116765;28;20479;-73
2023/03/14 10:28:29;;;;;;;33.90;32.20;;;;;;;;;;5117262;28;20429;-73
2023/03/14 10:30:57;;;;;;;35.27;33.47;;;;;;;;;;5117331;28;20419;-73
2023/03/14 10:33:25;;;;;;;33.37;31.77;;;;;;;;;;5116472;28;20483;-73
2023/03/14 10:35:56;;;;;;;35.10;33.30;;;;;;;;;;5115819;28;20463;-72
2023/03/14 10:38:25;;;;;;;36.83;34.93;;;;;;;;;;5116407;28;20466;-73
2023/03/14 10:40:53;;;;;;;36.37;34.47;;;;;;;;;;5117410;28;20527;-73
2023/03/14 10:43:21;;;;;;;35.13;33.33;;;;;;;;;;5116645;28;20415;-73
2023/03/14 10:45:57;;;;;;;24.33;22.83;;;;;;;;;;5116478;28;21006;-74
2023/03/14 10:48:26;;;;;;;20.87;19.77;;;;;;;;;;5117428;28;20552;-74
2023/03/14 10:50:57;;;;;;;19.37;18.33;;;;;;;;;;5116916;28;20507;-74
2023/03/14 10:53:24;;;;;;;18.80;17.60;;;;;;;;;;5116287;28;20476;-74
2023/03/14 10:55:51;;;;;;;18.00;17.10;;;;;;;;;;5115457;28;20429;-74
2023/03/14 10:58:22;;;;;;;17.20;16.20;;;;;;;;;;5115699;28;20458;-75
2023/03/14 11:00:51;;;;;;;18.73;17.43;;;;;;;;;;5116660;28;20443;-74
2023/03/14 11:03:20;;;;;;;16.30;15.60;;;;;;;;;;5115577;28;20450;-74
2023/03/14 11:05:51;;;;;;;16.40;15.50;;;;;;;;;;5116746;28;20461;-74
2023/03/14 11:08:22;;;;;;;16.83;16.03;;;;;;;;;;5116704;28;20762;-74
2023/03/14 11:10:50;;;;;;;16.27;15.47;;;;;;;;;;5116199;28;20442;-74
2023/03/14 11:13:20;;;;;;;16.73;15.60;;;;;;;;;;5115917;28;20446;-74
2023/03/14 11:15:52;;;;;;;16.60;15.80;;;;;;;;;;5116118;28;20438;-74
2023/03/14 11:18:37;;;;;;;16.37;15.57;;;;;;;;;;5115976;28;20927;-73
2023/03/14 11:21:10;;;;;;;15.80;15.10;;;;;;;;;;5115584;28;20464;-74
2023/03/14 11:23:41;;;;;;;16.37;15.57;;;;;;;;;;5115630;28;20431;-74
2023/03/14 11:26:14;;;;;;;16.03;15.13;;;;;;;;;;5115860;28;20482;-74
2023/03/14 11:28:43;;;;;;;15.10;14.50;;;;;;;;;;5116691;28;20444;-74
2023/03/14 11:31:15;;;;;;;16.73;15.53;;;;;;;;;;5115985;28;20427;-76
2023/03/14 11:33:48;;;;;;;15.67;14.97;;;;;;;;;;5115558;28;21134;-73
2023/03/14 11:36:16;;;;;;;15.20;14.30;;;;;;;;;;5117378;28;20498;-81
2023/03/14 11:38:47;;;;;;;15.43;14.63;;;;;;;;;;5115944;28;20414;-73
2023/03/14 11:41:16;;;;;;;14.73;14.13;;;;;;;;;;5115898;28;21131;-74
2023/03/14 11:43:46;;;;;;;15.00;14.30;;;;;;;;;;5115488;28;20454;-74
2023/03/14 11:46:16;;;;;;;14.63;13.93;;;;;;;;;;5115637;28;20436;-73
2023/03/14 11:48:46;;;;;;;15.85;14.95;;;;;;;;;;5122119;27;20420;-74
2023/03/14 11:51:18;;;;;;;15.97;15.17;;;;;;;;;;5135748;27;20564;-74
2023/03/14 11:53:50;;;;;;;15.40;14.67;;;;;;;;;;5135459;27;20539;-73
2023/03/14 11:56:19;;;;;;;18.17;17.17;;;;;;;;;;5136323;27;20530;-74
2023/03/14 11:58:50;;;;;;;16.77;15.93;;;;;;;;;;5135815;27;20418;-73
2023/03/14 12:01:21;;;;;;;16.85;16.05;;;;;;;;;;5135730;27;20428;-74
2023/03/14 12:03:54;;;;;;;15.27;14.57;;;;;;;;;;5136276;27;20203;-74
2023/03/14 12:06:25;;;;;;;15.85;15.15;;;;;;;;;;5134561;27;20228;-74
2023/03/14 12:08:53;;;;;;;17.27;16.37;;;;;;;;;;5136072;27;20185;-74
2023/03/14 12:11:28;;;;;;;17.52;16.63;;;;;;;;;;5135304;27;21056;-74
2023/03/14 12:13:55;;;;;;;18.20;17.10;;;;;;;;;;5135925;27;20202;-74
2023/03/14 12:16:28;;;;;;;16.60;15.73;;;;;;;;;;5135618;27;20270;-73
2023/03/14 12:18:55;;;;;;;16.20;15.40;;;;;;;;;;5135565;27;20487;-74
2023/03/14 12:21:24;;;;;;;16.37;15.47;;;;;;;;;;5135573;27;20713;-74
2023/03/14 12:23:52;;;;;;;17.25;16.30;;;;;;;;;;5135224;27;20474;-73
2023/03/14 12:26:21;;;;;;;18.00;16.58;;;;;;;;;;5135614;27;20723;-73
2023/03/14 12:28:50;;;;;;;17.20;16.30;;;;;;;;;;5135154;27;20199;-73
2023/03/14 12:31:36;;;;;;;17.27;16.13;;;;;;;;;;5135649;27;20256;-75
2023/03/14 12:34:04;;;;;;;17.80;16.90;;;;;;;;;;5135187;27;20691;-74
2023/03/14 12:36:54;;;;;;;18.00;16.80;;;;;;;;;;5135009;27;20872;-74
2023/03/14 12:39:23;;;;;;;18.98;17.58;;;;;;;;;;5136286;27;20855;-73
2023/03/14 12:41:53;;;;;;;18.25;17.13;;;;;;;;;;5134842;27;20217;-74
2023/03/14 12:44:38;;;;;;;18.07;16.87;;;;;;;;;;5135555;27;20207;-74
2023/03/14 12:47:35;;;;;;;19.67;18.15;;;;;;;;;;5135185;27;20498;-74
2023/03/14 12:50:09;;;;;;;17.93;16.60;;;;;;;;;;5134499;27;20212;-73
2023/03/14 12:52:40;;;;;;;17.70;16.47;;;;;;;;;;5134214;27;20450;-73
2023/03/14 12:55:10;;;;;;;16.97;16.07;;;;;;;;;;5134994;27;20974;-73
2023/03/14 12:57:40;;;;;;;18.00;16.70;;;;;;;;;;5135311;27;20421;-74
2023/03/14 13:00:18;;;;;;;18.03;16.97;;;;;;;;;;5135090;27;20441;-74
2023/03/14 13:02:47;;;;;;;18.17;16.80;;;;;;;;;;5133842;27;20465;-74
2023/03/14 13:05:16;;;;;;;18.42;17.15;;;;;;;;;;5135125;27;20421;-73
2023/03/14 13:07:59;;;;;;;18.00;16.57;;;;;;;;;;5135090;27;20612;-74
2023/03/14 13:10:29;;;;;;;17.67;16.50;;;;;;;;;;5134772;27;20431;-74
2023/03/14 13:12:57;;;;;;;18.65;16.98;;;;;;;;;;5134614;27;20193;-73
2023/03/14 13:15:26;;;;;;;17.73;16.50;;;;;;;;;;5134594;27;20784;-73
2023/03/14 13:17:54;;;;;;;18.63;16.90;;;;;;;;;;5134753;27;20916;-73
2023/03/14 13:20:24;;;;;;;18.67;17.30;;;;;;;;;;5135308;27;20447;-73
2023/03/14 13:22:51;;;;;;;16.43;15.43;;;;;;;;;;5133938;27;20423;-73
2023/03/14 13:25:20;;;;;;;18.50;16.60;;;;;;;;;;5134856;27;20411;-73
2023/03/14 13:27:49;;;;;;;17.63;16.33;;;;;;;;;;5134649;27;20214;-73
2023/03/14 13:30:18;;;;;;;16.13;14.97;;;;;;;;;;5134886;27;20198;-74
2023/03/14 13:32:47;;;;;;;17.00;15.90;;;;;;;;;;5134315;27;20425;-74
2023/03/14 13:35:18;;;;;;;17.77;16.50;;;;;;;;;;5134476;28;20259;-75
2023/03/14 13:37:45;;;;;;;18.20;16.57;;;;;;;;;;5134407;28;20474;-73
2023/03/14 13:40:20;;;;;;;17.52;16.02;;;;;;;;;;5134541;27;20450;-73
2023/03/14 13:42:49;;;;;;;19.43;15.80;;;;;;;;;;5134175;27;20188;-73
2023/03/14 13:45:16;;;;;;;17.98;16.05;;;;;;;;;;5134517;28;20452;-74
2023/03/14 13:47:45;;;;;;;19.60;16.88;;;;;;;;;;5134153;27;20203;-74
2023/03/14 13:50:15;;;;;;;19.02;17.52;;;;;;;;;;5134349;28;20212;-74
2023/03/14 13:52:42;;;;;;;22.87;17.00;;;;;;;;;;5133901;28;20606;-73
2023/03/14 13:55:15;;;;;;;19.27;17.47;;;;;;;;;;5134390;28;20832;-74
2023/03/14 13:57:46;;;;;;;19.40;17.40;;;;;;;;;;5134599;28;20408;-73
2023/03/14 14:00:23;;;;;;;19.80;17.37;;;;;;;;;;5134113;28;20426;-74
2023/03/14 14:02:51;;;;;;;18.63;17.00;;;;;;;;;;5133735;28;20520;-74
2023/03/14 14:05:18;;;;;;;20.73;18.50;;;;;;;;;;5134116;28;20514;-74
2023/03/14 14:07:46;;;;;;;18.10;16.70;;;;;;;;;;5134473;28;20421;-74
2023/03/14 14:10:13;;;;;;;18.50;16.90;;;;;;;;;;5133535;27;20199;-74
2023/03/14 14:12:45;;;;;;;21.13;18.73;;;;;;;;;;5133609;28;20419;-74
2023/03/14 14:15:13;;;;;;;20.07;18.50;;;;;;;;;;5134240;28;20495;-75
2023/03/14 14:17:44;;;;;;;20.73;18.93;;;;;;;;;;5134345;28;20444;-74
2023/03/14 14:20:16;;;;;;;19.92;18.05;;;;;;;;;;5135275;28;20426;-79
2023/03/14 14:22:43;;;;;;;26.27;19.83;;;;;;;;;;5134668;28;20188;-79